Fargo (FAR/KFAR)

Map

Destinations

Information

Location
Fargo, ND
Local Time
22:57 / 10:57 pm
GMT Time
03:57 / 3:57 am
Gates
2
No FAA reported delays
METAR KFAR 170353Z 34009KT 10SM OVC006 18/18 A2980 RMK AO2 SLP089 T01830183
TAF KFAR 170210Z 1702/1724 36010KT P6SM OVC020 TEMPO 1702/1704 OVC006 FM170400 36006KT P6SM VCSH OVC008 FM171300 34009KT P6SM BKN010 FM171400 34009KT P6SM SCT020